Time;durP1;ratioP1;P1;durP2;ratioP2;P2;SDS_P1;SDS_P2;PMS_P1;PMS_P2;Temp;Humidity;BMP_temperature;BMP_pressure;BME280_temperature;BME280_humidity;BME280_pressure;Samples;Min_cycle;Max_cycle;Signal;HPM_P1;HPM_P2
2021/08/07 00:02:04;;;;;;;6.55;2.20;;;17.60;99.90;;;;;;4955880;29;20130;-77
2021/08/07 00:04:30;;;;;;;4.65;2.13;;;17.60;99.90;;;;;;4954710;29;20031;-85
2021/08/07 00:06:55;;;;;;;4.22;2.35;;;17.60;99.90;;;;;;4955816;29;20055;-72
2021/08/07 00:09:21;;;;;;;4.40;2.38;;;17.60;99.90;;;;;;4955462;29;20027;-80
2021/08/07 00:11:46;;;;;;;6.75;2.65;;;17.50;99.90;;;;;;4955128;29;20042;-85
2021/08/07 00:14:13;;;;;;;2.63;2.25;;;17.50;99.90;;;;;;4955400;29;20480;-83
2021/08/07 00:16:38;;;;;;;4.70;2.40;;;17.50;99.90;;;;;;4955623;29;20038;-82
2021/08/07 00:19:04;;;;;;;4.07;2.33;;;17.50;99.90;;;;;;4954950;29;20019;-82
2021/08/07 00:21:30;;;;;;;5.22;2.00;;;17.40;99.90;;;;;;4955233;29;20586;-79
2021/08/07 00:23:56;;;;;;;7.03;2.20;;;17.50;99.90;;;;;;4955473;29;20031;-77
2021/08/07 00:26:22;;;;;;;3.75;2.20;;;17.40;99.90;;;;;;4954364;29;20102;-74
2021/08/07 00:28:47;;;;;;;3.83;2.05;;;17.40;99.90;;;;;;4937969;29;20102;-75
2021/08/07 00:31:13;;;;;;;4.13;2.13;;;17.40;99.90;;;;;;4937793;29;20027;-80
2021/08/07 00:33:38;;;;;;;3.05;2.10;;;17.30;99.90;;;;;;4954876;29;20127;-78
2021/08/07 00:36:04;;;;;;;6.93;2.20;;;17.30;99.90;;;;;;4938090;29;20027;-78
2021/08/07 00:38:30;;;;;;;5.03;2.38;;;17.30;99.90;;;;;;4954749;29;20532;-72
2021/08/07 00:40:55;;;;;;;3.88;2.70;;;17.30;99.90;;;;;;4954502;29;20102;-74
2021/08/07 00:43:21;;;;;;;7.10;2.53;;;17.30;99.90;;;;;;4954867;29;20075;-72
2021/08/07 00:45:47;;;;;;;7.32;2.47;;;17.30;99.90;;;;;;4937905;29;20015;-72
2021/08/07 00:48:12;;;;;;;4.55;2.15;;;17.20;99.90;;;;;;4954183;29;20020;-76
2021/08/07 00:50:38;;;;;;;3.17;2.03;;;17.10;99.90;;;;;;4937657;29;20480;-79
2021/08/07 00:53:04;;;;;;;4.10;2.40;;;17.10;99.90;;;;;;4955151;29;20365;-79
2021/08/07 00:55:31;;;;;;;6.45;2.40;;;17.00;99.90;;;;;;4954114;29;20042;-72
2021/08/07 00:57:56;;;;;;;6.85;2.22;;;16.90;99.90;;;;;;4954891;29;20074;-82
2021/08/07 01:00:22;;;;;;;6.75;2.55;;;16.90;99.90;;;;;;4953803;29;20035;-85
2021/08/07 01:03:00;;;;;;;4.85;2.47;;;16.90;99.90;;;;;;4937688;29;20047;-80
2021/08/07 01:05:35;;;;;;;4.70;2.63;;;16.90;99.90;;;;;;4937677;29;20497;-80
2021/08/07 01:08:19;;;;;;;4.65;2.38;;;16.90;99.90;;;;;;4954386;29;20034;-83
2021/08/07 01:10:50;;;;;;;6.55;2.75;;;16.90;99.90;;;;;;4954553;29;20039;-79
2021/08/07 01:13:35;;;;;;;6.45;2.72;;;16.90;99.90;;;;;;4937357;29;20389;-81
2021/08/07 01:16:27;;;;;;;6.60;2.70;;;17.00;99.90;;;;;;4954353;29;20035;-79
2021/08/07 01:18:53;;;;;;;4.90;2.80;;;16.90;99.90;;;;;;4954893;29;20038;-74
2021/08/07 01:21:25;;;;;;;6.45;3.15;;;16.90;99.90;;;;;;4937205;29;20097;-81
2021/08/07 01:23:56;;;;;;;4.85;2.25;;;16.90;99.90;;;;;;4954624;29;20401;-75
2021/08/07 01:26:45;;;;;;;5.85;3.15;;;16.90;99.90;;;;;;4954582;29;20107;-72
2021/08/07 01:29:13;;;;;;;4.88;3.67;;;16.90;99.90;;;;;;4953940;29;20069;-70
2021/08/07 01:31:38;;;;;;;5.25;3.15;;;16.90;99.90;;;;;;4954415;29;20121;-71
2021/08/07 01:34:06;;;;;;;5.50;3.30;;;17.00;99.90;;;;;;4955104;29;20050;-79
2021/08/07 01:36:34;;;;;;;8.23;3.80;;;17.00;99.90;;;;;;4954063;29;20031;-81
2021/08/07 01:39:00;;;;;;;5.93;2.97;;;17.00;99.90;;;;;;4954961;29;20019;-78
2021/08/07 01:41:25;;;;;;;6.65;3.45;;;17.00;99.90;;;;;;4954686;29;20040;-72
2021/08/07 01:43:52;;;;;;;6.05;3.00;;;17.00;99.90;;;;;;4954999;28;20030;-83
2021/08/07 01:46:19;;;;;;;7.88;4.05;;;17.00;99.90;;;;;;4958164;29;20027;-71
2021/08/07 01:49:02;;;;;;;4.68;3.33;;;16.90;99.90;;;;;;4958373;29;20015;-72
2021/08/07 01:51:39;;;;;;;5.47;3.25;;;16.90;99.90;;;;;;4957396;29;20046;-87
2021/08/07 01:54:06;;;;;;;5.93;3.20;;;17.00;99.90;;;;;;4958109;29;20019;-75
2021/08/07 01:56:34;;;;;;;5.55;3.00;;;17.00;99.90;;;;;;4958006;29;20433;-87
2021/08/07 01:59:12;;;;;;;5.70;3.53;;;16.90;99.90;;;;;;4957718;29;20016;-86
2021/08/07 02:01:39;;;;;;;6.15;3.05;;;16.90;99.90;;;;;;4957985;29;20051;-80
2021/08/07 02:04:06;;;;;;;6.82;3.65;;;16.80;99.90;;;;;;4957377;29;20480;-82
2021/08/07 02:06:32;;;;;;;7.78;3.42;;;16.80;99.90;;;;;;4957842;29;20034;-85
2021/08/07 02:08:58;;;;;;;4.30;2.90;;;16.70;99.90;;;;;;4958088;29;20027;-73
2021/08/07 02:11:24;;;;;;;5.50;2.47;;;16.60;99.90;;;;;;4956992;29;20182;-84
2021/08/07 02:13:53;;;;;;;5.97;3.28;;;16.60;99.90;;;;;;4941123;29;20024;-78
2021/08/07 02:16:19;;;;;;;6.90;3.72;;;16.50;99.90;;;;;;4957573;29;20035;-75
2021/08/07 02:18:46;;;;;;;4.60;3.00;;;16.40;99.90;;;;;;4957354;29;20031;-74
2021/08/07 02:21:12;;;;;;;5.38;3.08;;;16.30;99.90;;;;;;4957273;29;20035;-77
2021/08/07 02:23:39;;;;;;;6.57;3.20;;;16.20;99.90;;;;;;4957813;29;20030;-72
2021/08/07 02:26:11;;;;;;;4.72;2.88;;;16.20;99.90;;;;;;4956990;29;20071;-81
2021/08/07 02:28:37;;;;;;;7.88;3.17;;;16.10;99.90;;;;;;4940283;29;20023;-77
2021/08/07 02:31:03;;;;;;;6.25;3.78;;;16.00;99.90;;;;;;4957544;29;20400;-75
2021/08/07 02:33:29;;;;;;;5.80;3.05;;;16.00;99.90;;;;;;4956389;29;20077;-71
2021/08/07 02:35:57;;;;;;;4.95;3.00;;;15.90;99.90;;;;;;4940241;29;20478;-72
2021/08/07 02:38:26;;;;;;;5.72;3.25;;;15.90;99.90;;;;;;4939821;29;20027;-79
2021/08/07 02:40:54;;;;;;;4.43;3.22;;;15.80;99.90;;;;;;4956436;29;20468;-78
2021/08/07 02:43:20;;;;;;;5.45;3.53;;;15.70;99.90;;;;;;4956927;29;20043;-74
2021/08/07 02:45:45;;;;;;;3.45;3.13;;;15.70;99.90;;;;;;4957223;29;20112;-74
2021/08/07 02:48:11;;;;;;;5.72;3.30;;;15.60;99.90;;;;;;4938865;29;20023;-80
2021/08/07 02:50:40;;;;;;;6.72;3.55;;;15.60;99.90;;;;;;4957183;29;20476;-72
2021/08/07 02:53:05;;;;;;;4.40;3.13;;;15.50;99.90;;;;;;4956592;29;20038;-78
2021/08/07 02:55:31;;;;;;;6.53;3.60;;;15.50;99.90;;;;;;4955526;28;20469;-79
2021/08/07 02:57:57;;;;;;;8.05;3.35;;;15.40;99.90;;;;;;4939725;29;20045;-72
2021/08/07 03:00:23;;;;;;;4.63;3.42;;;15.40;99.90;;;;;;4955955;29;20023;-77
2021/08/07 03:02:49;;;;;;;6.40;3.45;;;15.40;99.90;;;;;;4956883;29;20062;-74
2021/08/07 03:05:15;;;;;;;5.82;3.03;;;15.30;99.90;;;;;;4956612;29;20460;-75
2021/08/07 03:07:41;;;;;;;5.38;3.30;;;15.30;99.90;;;;;;4956326;29;20031;-73
2021/08/07 03:10:08;;;;;;;4.47;3.30;;;15.30;99.90;;;;;;4956721;29;20110;-74
2021/08/07 03:12:35;;;;;;;8.38;3.75;;;15.30;99.90;;;;;;4939265;29;20023;-79
2021/08/07 03:15:01;;;;;;;4.63;3.10;;;15.40;99.90;;;;;;4956147;29;20346;-72
2021/08/07 03:17:26;;;;;;;5.35;3.30;;;15.40;99.90;;;;;;4956447;29;20502;-78
2021/08/07 03:19:52;;;;;;;6.10;3.40;;;15.40;99.90;;;;;;4956648;29;20370;-77
2021/08/07 03:22:18;;;;;;;4.72;3.40;;;15.30;99.90;;;;;;4955834;29;20058;-73
2021/08/07 03:24:44;;;;;;;7.05;3.17;;;15.30;99.90;;;;;;4956694;29;20027;-73
2021/08/07 03:27:10;;;;;;;6.70;2.97;;;15.30;99.90;;;;;;4956565;29;20086;-77
2021/08/07 03:29:36;;;;;;;6.43;3.03;;;15.30;99.90;;;;;;4956162;29;20035;-77
2021/08/07 03:32:02;;;;;;;4.25;2.80;;;15.20;99.90;;;;;;4956800;29;20090;-72
2021/08/07 03:34:28;;;;;;;5.07;3.10;;;15.20;99.90;;;;;;4956213;29;20042;-73
2021/08/07 03:36:53;;;;;;;3.08;2.78;;;15.20;99.90;;;;;;4955917;29;20028;-74
2021/08/07 03:39:19;;;;;;;6.95;2.83;;;15.10;99.90;;;;;;4955941;29;20028;-78
2021/08/07 03:41:44;;;;;;;5.57;2.60;;;15.10;99.90;;;;;;4956362;29;20028;-88
2021/08/07 03:44:10;;;;;;;6.47;3.13;;;15.10;99.90;;;;;;4938594;29;20362;-84
2021/08/07 03:46:36;;;;;;;5.72;2.92;;;15.10;99.90;;;;;;4956278;29;20050;-73
2021/08/07 03:49:02;;;;;;;4.78;2.83;;;15.10;99.90;;;;;;4956255;29;20027;-72
2021/08/07 03:51:27;;;;;;;5.60;2.83;;;15.10;99.90;;;;;;4955114;29;20036;-76
2021/08/07 03:53:53;;;;;;;4.65;2.60;;;15.10;99.90;;;;;;4956117;29;20039;-72
2021/08/07 03:56:19;;;;;;;6.78;2.55;;;15.20;99.90;;;;;;4955428;29;20027;-86
2021/08/07 03:58:44;;;;;;;5.53;2.60;;;15.20;99.90;;;;;;4956304;29;20056;-79
2021/08/07 04:01:11;;;;;;;7.70;2.95;;;15.20;99.90;;;;;;4956186;29;20036;-86
2021/08/07 04:03:36;;;;;;;4.90;2.78;;;15.30;99.90;;;;;;4955530;29;20102;-74
2021/08/07 04:06:02;;;;;;;5.35;2.55;;;15.40;99.90;;;;;;4939077;28;20019;-72
2021/08/07 04:08:28;;;;;;;3.28;2.60;;;15.50;99.90;;;;;;4955427;29;20055;-73
2021/08/07 04:10:53;;;;;;;2.58;2.13;;;15.60;99.90;;;;;;4937864;29;20031;-77
2021/08/07 04:13:18;;;;;;;3.60;2.60;;;15.60;99.90;;;;;;4955285;29;20464;-76
2021/08/07 04:15:44;;;;;;;3.60;2.35;;;15.70;99.90;;;;;;4955412;29;20036;-73
2021/08/07 04:18:09;;;;;;;6.22;2.67;;;15.70;99.90;;;;;;4954699;29;20019;-72
2021/08/07 04:20:35;;;;;;;6.00;2.85;;;15.80;99.90;;;;;;4938185;29;20495;-74
2021/08/07 04:23:01;;;;;;;4.43;2.88;;;15.90;99.90;;;;;;4955521;29;20023;-71
2021/08/07 04:25:26;;;;;;;6.82;2.72;;;15.90;99.90;;;;;;4954223;29;20026;-72
2021/08/07 04:27:52;;;;;;;5.93;2.70;;;15.90;99.90;;;;;;4955286;29;20027;-79
2021/08/07 04:30:17;;;;;;;4.55;2.58;;;16.00;99.90;;;;;;4954720;29;20027;-75
2021/08/07 04:32:43;;;;;;;5.57;2.78;;;16.10;99.90;;;;;;4954833;29;20031;-72
2021/08/07 04:35:09;;;;;;;4.97;2.60;;;16.10;99.90;;;;;;4938090;29;20023;-82
2021/08/07 04:37:52;;;;;;;5.57;2.60;;;16.10;99.90;;;;;;4954611;29;20031;-79
2021/08/07 04:40:19;;;;;;;6.57;2.65;;;16.20;99.90;;;;;;4954181;29;20058;-78
2021/08/07 04:42:45;;;;;;;6.70;2.60;;;16.20;99.90;;;;;;4955279;29;20078;-72
2021/08/07 04:45:11;;;;;;;4.97;2.40;;;16.20;99.90;;;;;;4937791;29;20483;-74
2021/08/07 04:47:37;;;;;;;7.47;2.60;;;16.20;99.90;;;;;;4954536;29;20027;-72
2021/08/07 04:50:03;;;;;;;3.53;2.10;;;16.20;99.90;;;;;;4954794;29;20031;-71
2021/08/07 04:52:29;;;;;;;2.85;2.20;;;16.20;99.90;;;;;;4954442;29;20066;-74
2021/08/07 04:54:54;;;;;;;3.00;2.35;;;16.30;99.90;;;;;;4955020;29;20055;-77
2021/08/07 04:57:20;;;;;;;3.47;2.40;;;16.30;99.90;;;;;;4954757;29;20028;-72
2021/08/07 04:59:45;;;;;;;4.05;2.33;;;16.30;99.90;;;;;;4954187;29;20058;-72
2021/08/07 05:02:11;;;;;;;8.77;2.70;;;16.30;99.90;;;;;;4937214;29;20051;-77
2021/08/07 05:04:36;;;;;;;7.00;2.63;;;16.40;99.90;;;;;;4955062;29;20030;-73
2021/08/07 05:07:02;;;;;;;6.50;2.50;;;16.40;99.90;;;;;;4954237;29;20392;-75
2021/08/07 05:09:28;;;;;;;3.42;2.60;;;16.50;99.90;;;;;;4954339;29;20098;-72
2021/08/07 05:11:53;;;;;;;4.82;2.28;;;16.60;99.90;;;;;;4954667;29;20035;-71
2021/08/07 05:14:19;;;;;;;4.18;2.92;;;16.60;99.90;;;;;;4936433;29;20158;-77
2021/08/07 05:16:44;;;;;;;4.78;2.38;;;16.80;99.90;;;;;;4937484;29;20114;-73
2021/08/07 05:19:10;;;;;;;8.85;3.47;;;16.90;99.90;;;;;;4938662;29;20110;-73
2021/08/07 05:21:35;;;;;;;8.48;2.40;;;17.00;99.90;;;;;;4957961;29;20481;-71
2021/08/07 05:24:01;;;;;;;7.00;2.50;;;17.00;99.90;;;;;;4958681;29;20027;-71
2021/08/07 05:26:26;;;;;;;4.15;1.95;;;17.10;99.90;;;;;;4958313;29;20035;-76
2021/08/07 05:28:52;;;;;;;7.82;2.45;;;17.20;99.90;;;;;;4957814;29;20028;-73
2021/08/07 05:31:17;;;;;;;5.53;2.20;;;17.30;99.90;;;;;;4940915;29;20139;-72
2021/08/07 05:33:43;;;;;;;4.13;2.40;;;17.30;99.90;;;;;;4958360;29;20055;-72
2021/08/07 05:36:08;;;;;;;4.88;2.50;;;17.40;99.90;;;;;;4940740;29;20515;-75
2021/08/07 05:38:34;;;;;;;3.25;2.20;;;17.40;99.90;;;;;;4958169;29;20451;-75
2021/08/07 05:40:59;;;;;;;7.78;2.30;;;17.40;99.90;;;;;;4941173;29;20083;-74
2021/08/07 05:43:25;;;;;;;3.03;2.17;;;17.40;99.90;;;;;;4957480;29;20029;-71
2021/08/07 05:45:51;;;;;;;4.60;1.95;;;17.50;99.90;;;;;;4958586;29;20027;-71
2021/08/07 05:48:18;;;;;;;5.95;2.67;;;17.50;99.90;;;;;;4940817;29;20023;-71
2021/08/07 05:50:44;;;;;;;3.38;1.95;;;17.60;99.90;;;;;;4940059;29;20074;-71
2021/08/07 05:53:09;;;;;;;6.82;2.58;;;17.60;99.90;;;;;;4957729;29;20041;-72
2021/08/07 05:55:35;;;;;;;4.38;2.00;;;17.70;99.90;;;;;;4957887;29;20094;-71
2021/08/07 05:58:02;;;;;;;4.18;2.08;;;17.80;99.90;;;;;;4957255;29;20023;-70
2021/08/07 06:00:28;;;;;;;4.18;2.15;;;17.90;99.90;;;;;;4940227;29;20031;-71
2021/08/07 06:02:54;;;;;;;5.43;1.90;;;17.90;99.90;;;;;;4956982;29;20122;-71
2021/08/07 06:05:19;;;;;;;7.97;2.33;;;17.90;99.90;;;;;;4957591;29;20095;-72
2021/08/07 06:07:45;;;;;;;5.78;2.30;;;18.00;99.90;;;;;;4957682;29;20369;-72
2021/08/07 06:10:10;;;;;;;5.45;2.30;;;18.00;99.90;;;;;;4956740;29;20100;-71
2021/08/07 06:12:36;;;;;;;4.72;2.42;;;18.00;99.90;;;;;;4957623;29;20046;-71
2021/08/07 06:15:02;;;;;;;4.45;2.13;;;18.10;99.90;;;;;;4940089;29;20028;-70
2021/08/07 06:17:28;;;;;;;2.60;1.83;;;18.20;99.90;;;;;;4939285;29;20384;-73
2021/08/07 06:19:54;;;;;;;4.20;1.83;;;18.30;99.90;;;;;;4957674;29;20026;-73
2021/08/07 06:22:19;;;;;;;7.68;2.55;;;18.50;99.90;;;;;;4940115;29;20450;-72
2021/08/07 06:24:45;;;;;;;5.72;2.13;;;18.70;99.90;;;;;;4956781;29;20082;-74
2021/08/07 06:27:10;;;;;;;8.13;2.35;;;18.80;99.90;;;;;;4957257;29;20054;-71
2021/08/07 06:29:36;;;;;;;4.28;1.92;;;18.80;99.90;;;;;;4939712;29;20495;-71
2021/08/07 06:32:02;;;;;;;6.10;2.53;;;18.90;99.90;;;;;;4956527;29;20043;-75
2021/08/07 06:34:27;;;;;;;6.32;2.15;;;18.90;99.90;;;;;;4957054;29;20050;-71
2021/08/07 06:36:53;;;;;;;3.88;1.85;;;18.90;99.90;;;;;;4939914;29;20034;-76
2021/08/07 06:39:18;;;;;;;6.82;2.05;;;19.00;99.90;;;;;;4956203;29;20019;-78
2021/08/07 06:41:44;;;;;;;7.32;2.00;;;19.10;99.90;;;;;;4939743;29;20034;-71
2021/08/07 06:44:09;;;;;;;3.38;1.70;;;19.20;99.90;;;;;;4957060;29;20046;-74
2021/08/07 06:46:35;;;;;;;5.53;2.00;;;19.30;99.90;;;;;;4956077;29;20082;-75
2021/08/07 06:49:00;;;;;;;3.63;1.85;;;19.40;99.90;;;;;;4939788;29;20030;-70
2021/08/07 06:51:26;;;;;;;5.05;1.70;;;19.40;99.90;;;;;;4956746;29;20045;-71
2021/08/07 06:53:51;;;;;;;7.07;2.40;;;19.40;99.90;;;;;;4956396;29;20441;-78
2021/08/07 06:56:17;;;;;;;4.93;2.30;;;19.40;99.90;;;;;;4939525;29;20024;-78
2021/08/07 06:58:43;;;;;;;6.25;2.05;;;19.40;99.90;;;;;;4957144;29;20377;-71
2021/08/07 07:01:09;;;;;;;4.22;1.58;;;19.60;99.90;;;;;;4956689;29;20034;-71
2021/08/07 07:03:34;;;;;;;2.80;1.55;;;19.70;99.90;;;;;;4956320;29;20385;-81
2021/08/07 07:06:00;;;;;;;3.25;1.50;;;20.00;99.90;;;;;;4939094;29;20443;-75
2021/08/07 07:08:25;;;;;;;3.92;1.52;;;20.30;99.90;;;;;;4955650;29;20136;-74
2021/08/07 07:10:51;;;;;;;4.68;1.40;;;20.50;99.90;;;;;;4956507;29;20106;-73
2021/08/07 07:13:16;;;;;;;5.28;1.58;;;20.80;99.90;;;;;;4955707;29;20110;-74
2021/08/07 07:15:42;;;;;;;2.92;1.40;;;21.00;99.90;;;;;;4939420;29;20029;-71
2021/08/07 07:18:07;;;;;;;3.22;1.20;;;21.10;99.90;;;;;;4956442;29;20050;-71
2021/08/07 07:20:33;;;;;;;3.05;1.50;;;21.20;99.90;;;;;;4955306;29;20042;-71
2021/08/07 07:22:58;;;;;;;5.90;1.83;;;21.20;99.90;;;;;;4956305;29;20127;-73
2021/08/07 07:25:24;;;;;;;4.13;1.33;;;21.00;99.90;;;;;;4955979;29;20023;-71
2021/08/07 07:27:49;;;;;;;2.65;1.45;;;20.90;99.90;;;;;;4955571;29;20031;-71
2021/08/07 07:30:16;;;;;;;3.95;1.40;;;20.70;99.90;;;;;;4938609;29;20031;-70
2021/08/07 07:32:43;;;;;;;5.28;1.45;;;20.70;99.90;;;;;;4956637;29;20039;-71
2021/08/07 07:35:09;;;;;;;3.25;1.48;;;20.80;99.90;;;;;;4955488;29;20487;-71
2021/08/07 07:37:35;;;;;;;4.45;1.17;;;21.00;99.90;;;;;;4956087;29;20035;-72
2021/08/07 07:40:01;;;;;;;3.75;1.17;;;21.30;99.90;;;;;;4938749;29;20015;-72
2021/08/07 07:42:26;;;;;;;2.15;1.25;;;21.60;99.90;;;;;;4954834;28;20034;-71
2021/08/07 07:44:52;;;;;;;4.60;1.40;;;21.80;99.90;;;;;;4955970;29;20030;-71
2021/08/07 07:47:17;;;;;;;5.75;1.25;;;21.80;99.90;;;;;;4938476;29;20538;-71
2021/08/07 07:49:43;;;;;;;3.80;1.30;;;21.70;99.90;;;;;;4955111;29;20095;-72
2021/08/07 07:52:08;;;;;;;3.38;1.45;;;21.80;99.90;;;;;;4955788;29;20039;-74
2021/08/07 07:54:34;;;;;;;6.70;1.50;;;21.80;99.90;;;;;;4955412;29;20047;-71
2021/08/07 07:57:02;;;;;;;5.80;1.70;;;21.80;99.90;;;;;;4955089;29;20539;-71
2021/08/07 07:59:27;;;;;;;2.78;1.27;;;21.80;99.90;;;;;;4955284;29;20035;-71
2021/08/07 08:01:53;;;;;;;3.25;1.30;;;21.80;99.90;;;;;;4955618;29;20484;-72
2021/08/07 08:04:18;;;;;;;1.80;1.30;;;22.00;99.90;;;;;;4954705;29;20019;-71
2021/08/07 08:06:44;;;;;;;3.60;1.30;;;22.00;99.90;;;;;;4938521;29;20376;-76
2021/08/07 08:09:09;;;;;;;3.67;1.48;;;22.00;99.90;;;;;;4955644;29;20071;-71
2021/08/07 08:11:35;;;;;;;3.75;1.40;;;22.10;99.90;;;;;;4937522;29;20480;-72
2021/08/07 08:14:00;;;;;;;2.83;1.10;;;22.20;99.90;;;;;;4955565;29;20480;-73
2021/08/07 08:16:26;;;;;;;1.85;1.08;;;22.40;99.90;;;;;;4954317;29;20030;-76
2021/08/07 08:18:52;;;;;;;1.98;1.08;;;22.60;99.90;;;;;;4955381;29;20499;-76
2021/08/07 08:21:19;;;;;;;2.72;1.52;;;22.80;99.90;;;;;;4954808;29;20155;-72
2021/08/07 08:23:45;;;;;;;5.70;1.70;;;22.90;99.90;;;;;;4955003;29;20038;-73
2021/08/07 08:26:12;;;;;;;6.13;1.60;;;23.00;99.90;;;;;;4954952;29;20034;-72
2021/08/07 08:28:38;;;;;;;3.15;1.60;;;23.10;99.90;;;;;;4938265;29;20035;-85
2021/08/07 08:31:03;;;;;;;4.10;1.50;;;23.20;99.90;;;;;;4954571;29;20480;-72
2021/08/07 08:33:29;;;;;;;4.30;1.63;;;23.20;99.90;;;;;;4955042;29;20023;-71
2021/08/07 08:35:55;;;;;;;3.50;1.42;;;23.30;99.90;;;;;;4954950;29;20082;-71
2021/08/07 08:38:20;;;;;;;2.67;1.58;;;23.10;99.90;;;;;;4936911;29;20023;-71
2021/08/07 08:40:46;;;;;;;4.43;1.50;;;22.90;99.90;;;;;;4954888;29;20030;-72
2021/08/07 08:43:12;;;;;;;3.40;1.70;;;22.70;99.90;;;;;;4954718;29;20027;-72
2021/08/07 08:45:38;;;;;;;6.25;1.60;;;22.60;99.90;;;;;;4954516;29;20062;-71
2021/08/07 08:48:05;;;;;;;5.47;2.40;;;22.60;99.90;;;;;;4955111;29;20054;-71
2021/08/07 08:50:30;;;;;;;3.38;1.85;;;22.80;99.90;;;;;;4954385;29;20754;-71
2021/08/07 08:52:57;;;;;;;4.35;1.77;;;23.00;99.90;;;;;;4954385;28;20491;-71
2021/08/07 08:55:23;;;;;;;3.35;1.45;;;23.30;99.90;;;;;;4954605;29;20059;-71
2021/08/07 08:57:49;;;;;;;3.22;1.42;;;23.40;99.90;;;;;;4954842;29;20034;-71
2021/08/07 09:00:15;;;;;;;6.85;2.33;;;23.30;99.90;;;;;;4953703;29;20493;-71
2021/08/07 09:02:41;;;;;;;6.03;1.75;;;23.20;99.90;;;;;;4954570;29;20063;-72
2021/08/07 09:05:09;;;;;;;2.20;1.33;;;23.20;99.90;;;;;;4954686;29;20032;-72
2021/08/07 09:07:35;;;;;;;3.90;1.45;;;23.30;99.90;;;;;;4953751;29;20027;-72
2021/08/07 09:10:00;;;;;;;3.17;1.92;;;23.20;99.90;;;;;;4954536;29;20035;-71
2021/08/07 09:12:48;;;;;;;4.88;2.00;;;23.00;99.90;;;;;;4954422;29;20039;-75
2021/08/07 09:15:35;;;;;;;3.78;1.70;;;22.90;99.90;;;;;;4954417;29;20019;-71
2021/08/07 09:18:10;;;;;;;3.05;1.80;;;23.10;99.90;;;;;;4954787;29;20429;-75
2021/08/07 09:20:37;;;;;;;4.68;1.83;;;23.20;99.90;;;;;;4954185;29;20366;-71
2021/08/07 09:23:03;;;;;;;3.17;1.65;;;23.20;99.90;;;;;;4937800;29;20026;-72
2021/08/07 09:25:37;;;;;;;4.65;1.80;;;23.20;99.90;;;;;;4937118;29;20082;-74
2021/08/07 09:28:04;;;;;;;3.25;1.63;;;23.20;99.90;;;;;;4924531;29;20024;-72
2021/08/07 09:30:33;;;;;;;4.35;1.73;;;23.30;99.90;;;;;;4951126;29;20055;-73
2021/08/07 09:33:07;;;;;;;4.70;1.85;;;23.40;99.90;;;;;;4953801;29;20503;-73
2021/08/07 09:35:38;;;;;;;3.30;1.80;;;23.30;99.90;;;;;;4952835;29;20114;-74
2021/08/07 09:38:14;;;;;;;4.60;1.65;;;23.40;99.90;;;;;;4936364;29;20031;-80
2021/08/07 09:40:41;;;;;;;5.45;2.20;;;23.60;99.90;;;;;;4917366;29;20035;-83
2021/08/07 09:43:08;;;;;;;4.80;1.92;;;23.60;99.90;;;;;;4917111;29;20031;-75
2021/08/07 09:45:33;;;;;;;2.72;1.63;;;23.50;99.90;;;;;;4917700;29;20385;-75
2021/08/07 09:48:02;;;;;;;4.32;1.98;;;23.20;99.90;;;;;;4934856;29;20483;-75
2021/08/07 09:50:30;;;;;;;2.75;1.52;;;22.90;99.90;;;;;;4927107;29;20062;-77
2021/08/07 09:52:57;;;;;;;4.43;1.60;;;22.80;99.90;;;;;;4953258;29;20035;-80
2021/08/07 09:55:23;;;;;;;4.00;1.73;;;22.80;99.90;;;;;;4953424;29;20031;-75
2021/08/07 09:58:12;;;;;;;3.45;1.58;;;23.00;99.90;;;;;;4954271;29;20494;-74
2021/08/07 10:00:44;;;;;;;2.25;1.55;;;23.30;99.90;;;;;;4954324;29;20027;-74
2021/08/07 10:03:15;;;;;;;4.78;2.22;;;23.30;99.90;;;;;;4937396;29;20145;-73
2021/08/07 10:06:23;;;;;;;3.50;1.85;;;23.20;99.90;;;;;;4956771;28;20035;-88
2021/08/07 10:13:17;;;;;;;2.90;1.33;;;23.00;99.90;;;;;;4880738;29;20137;-86
2021/08/07 10:15:43;;;;;;;3.22;1.27;;;23.00;99.90;;;;;;4879990;29;20501;-74
2021/08/07 10:18:10;;;;;;;4.22;1.58;;;23.00;99.90;;;;;;4877275;29;20064;-81
2021/08/07 10:20:38;;;;;;;3.90;1.85;;;22.90;99.90;;;;;;4923926;29;20039;-74
2021/08/07 10:23:05;;;;;;;4.03;1.67;;;22.90;99.90;;;;;;4956881;29;20019;-74
2021/08/07 10:25:32;;;;;;;3.15;1.60;;;23.00;99.90;;;;;;4957243;29;20450;-76
2021/08/07 10:28:01;;;;;;;4.53;1.67;;;23.20;99.80;;;;;;4940726;29;20170;-75
2021/08/07 10:30:30;;;;;;;5.28;1.42;;;23.30;99.20;;;;;;4938784;29;20118;-83
2021/08/07 10:32:58;;;;;;;3.28;1.33;;;23.90;99.10;;;;;;4940270;29;20060;-74
2021/08/07 10:35:26;;;;;;;2.70;1.58;;;24.50;98.60;;;;;;4939623;29;20020;-81
2021/08/07 10:37:54;;;;;;;3.05;1.63;;;24.80;98.00;;;;;;4939502;29;20091;-77
2021/08/07 10:40:20;;;;;;;4.20;1.80;;;25.00;97.50;;;;;;4956412;29;20101;-75
2021/08/07 10:42:46;;;;;;;4.63;1.88;;;25.10;96.60;;;;;;4956914;29;20055;-74
2021/08/07 10:45:13;;;;;;;4.72;1.63;;;25.00;96.80;;;;;;4938221;29;20023;-71
2021/08/07 10:47:44;;;;;;;5.72;1.50;;;24.90;97.00;;;;;;4939079;29;20039;-69
2021/08/07 10:50:19;;;;;;;;;;;24.70;97.20;;;;;;4939506;29;20034;-70
2021/08/07 10:52:45;;;;;;;5.50;1.77;;;24.40;98.00;;;;;;4956116;29;19973;-70
2021/08/07 10:55:44;;;;;;;3.60;1.70;;;24.00;97.40;;;;;;4955521;29;20023;-70
2021/08/07 10:58:38;;;;;;;3.97;1.73;;;23.70;97.50;;;;;;4956470;29;20027;-71
2021/08/07 11:01:25;;;;;;;3.40;1.48;;;23.70;98.20;;;;;;4956412;28;20583;-74
2021/08/07 11:04:02;;;;;;;4.07;1.42;;;23.90;97.70;;;;;;4918045;29;20095;-73
2021/08/07 11:06:42;;;;;;;3.63;1.92;;;23.90;97.70;;;;;;4916858;29;20035;-72
2021/08/07 11:09:16;;;;;;;4.07;1.77;;;23.90;96.80;;;;;;4918085;29;20401;-71
2021/08/07 11:11:43;;;;;;;5.10;1.83;;;24.10;96.70;;;;;;4918369;29;20121;-71
2021/08/07 11:14:34;;;;;;;2.85;1.30;;;24.30;96.60;;;;;;4917815;29;20055;-71
2021/08/07 11:17:06;;;;;;;3.65;1.80;;;24.50;96.00;;;;;;4912029;29;20066;-72
2021/08/07 11:19:48;;;;;;;5.03;2.15;;;24.50;95.50;;;;;;4916095;29;20047;-71
2021/08/07 11:22:36;;;;;;;8.20;2.22;;;24.30;95.70;;;;;;4918065;29;20024;-72
2021/08/07 11:25:19;;;;;;;5.53;1.90;;;24.00;96.30;;;;;;4898478;29;20042;-71
2021/08/07 11:27:45;;;;;;;3.33;1.60;;;23.70;96.50;;;;;;4917703;29;20046;-74
2021/08/07 11:30:27;;;;;;;3.65;1.55;;;23.40;95.50;;;;;;4916509;29;20470;-71
2021/08/07 11:32:56;;;;;;;2.30;1.17;;;23.10;95.70;;;;;;4917087;29;20062;-71
2021/08/07 11:35:34;;;;;;;3.42;1.70;;;22.90;95.50;;;;;;4917134;29;20103;-72
2021/08/07 11:38:06;;;;;;;4.15;1.35;;;22.90;96.20;;;;;;4917929;29;20028;-72
2021/08/07 11:40:51;;;;;;;;;;;22.90;95.70;;;;;;4916221;29;20503;-78
2021/08/07 11:43:26;;;;;;;4.25;1.38;;;22.90;96.00;;;;;;4916443;29;19907;-72
2021/08/07 11:45:54;;;;;;;7.07;1.90;;;23.20;95.90;;;;;;4916612;29;20492;-72
2021/08/07 11:48:57;;;;;;;4.40;1.45;;;23.40;95.10;;;;;;4917038;29;20028;-76
2021/08/07 11:51:25;;;;;;;4.78;1.98;;;23.60;95.00;;;;;;4915959;29;20401;-72
2021/08/07 11:53:51;;;;;;;5.53;1.33;;;23.70;93.90;;;;;;4917889;29;20028;-72
2021/08/07 11:56:19;;;;;;;3.88;1.65;;;23.80;94.40;;;;;;4916802;29;20042;-71
2021/08/07 11:58:56;;;;;;;6.43;1.70;;;23.90;94.80;;;;;;4917597;29;20020;-72
2021/08/07 12:01:27;;;;;;;2.47;1.50;;;24.00;94.50;;;;;;4917097;29;20396;-71
2021/08/07 12:03:54;;;;;;;4.93;1.55;;;24.20;94.60;;;;;;4955255;29;20038;-71
2021/08/07 12:06:43;;;;;;;4.15;1.50;;;24.20;94.60;;;;;;4955353;29;20074;-72
2021/08/07 12:09:11;;;;;;;4.15;1.50;;;24.00;94.20;;;;;;4954782;29;20031;-74
2021/08/07 12:11:39;;;;;;;5.63;1.40;;;23.90;93.60;;;;;;4955309;29;20039;-72
2021/08/07 12:14:04;;;;;;;3.15;1.10;;;24.10;93.40;;;;;;4955409;29;20033;-72
2021/08/07 12:16:37;;;;;;;3.95;1.45;;;24.10;93.20;;;;;;4954383;29;20387;-71
2021/08/07 12:19:07;;;;;;;2.45;1.10;;;24.00;93.30;;;;;;4955408;29;20023;-72
2021/08/07 12:21:40;;;;;;;3.90;1.58;;;24.00;92.50;;;;;;4954881;29;20086;-71
2021/08/07 12:24:09;;;;;;;3.25;1.40;;;24.20;92.90;;;;;;4954740;29;20015;-72
2021/08/07 12:26:48;;;;;;;2.60;1.42;;;24.20;92.70;;;;;;4954833;29;20039;-72
2021/08/07 12:29:17;;;;;;;3.85;1.10;;;24.10;91.80;;;;;;4954612;28;20039;-71
2021/08/07 12:31:54;;;;;;;3.63;1.23;;;24.00;91.50;;;;;;4954499;29;20118;-71
2021/08/07 12:34:28;;;;;;;4.38;1.70;;;23.90;90.80;;;;;;4937485;29;20031;-72
2021/08/07 12:37:05;;;;;;;4.28;1.40;;;23.70;90.70;;;;;;4954410;29;20037;-71
2021/08/07 12:40:00;;;;;;;2.55;1.25;;;23.50;91.50;;;;;;4954408;29;20056;-71
2021/08/07 12:42:28;;;;;;;3.70;1.13;;;23.60;91.60;;;;;;4938060;29;20034;-71
2021/08/07 12:45:01;;;;;;;3.33;1.25;;;23.70;90.60;;;;;;4954326;29;20473;-71
2021/08/07 12:47:31;;;;;;;3.35;1.63;;;24.00;90.00;;;;;;4954602;29;20023;-70
2021/08/07 12:50:08;;;;;;;2.28;1.38;;;24.40;87.90;;;;;;4954746;29;20031;-71
2021/08/07 12:52:51;;;;;;;3.83;1.95;;;24.50;88.90;;;;;;4953862;29;20035;-71
2021/08/07 12:55:20;;;;;;;2.25;1.10;;;24.50;88.40;;;;;;4954472;29;20086;-71
2021/08/07 12:57:46;;;;;;;3.13;1.20;;;24.50;88.00;;;;;;4936759;29;20074;-72
2021/08/07 13:00:13;;;;;;;2.70;1.20;;;24.70;86.20;;;;;;4954316;29;20027;-71